This is the latest recevied weather packets stored in our database for station/object W5HKR. If no packets are shown the sender has not sent any weather packets the latest 10 day(s).
| Time | Temp. | Humidity | Pressure | Rain* | Wind** | Luminosity | Snow |
|---|---|---|---|---|---|---|---|
| 1777244009 | 18.33° C | 91% | 990.6 hPa | 0 mm | - | - | - |
| 1777243712 | 18.33° C | 91% | 990.6 hPa | 0 mm | - | - | - |
| 1777243601 | 18.33° C | 91% | 990.6 hPa | 0 mm | - | - | - |
| 1777243410 | 30° C | 66% | 979.3 hPa | 0 mm | - | - | - |
| 1777243111 | 18.33° C | 91% | 990.6 hPa | 0 mm | - | - | - |
| 1777242810 | 30° C | 67% | 978.8 hPa | 0 mm | - | - | - |
| 1777242509 | 18.33° C | 91% | 990.6 hPa | 0 mm | - | - | - |
| 1777242210 | 30.56° C | 65% | 978.8 hPa | 0 mm | - | - | - |
| 1777241910 | 30.56° C | 63% | 978.3 hPa | 0 mm | - | - | - |
| 1777241610 | 30.56° C | 64% | 978.3 hPa | 0 mm | - | - | - |
| 1777241444 | 18.33° C | 91% | 990.6 hPa | 0 mm | - | - | - |
| 1777241309 | 18.33° C | 91% | 990.6 hPa | 0 mm | - | - | - |
| 1777241010 | 18.33° C | 91% | 990.6 hPa | 0 mm | - | - | - |
| 1777240711 | 31.11° C | 63% | 979 hPa | 0 mm | - | - | - |
| 1777240412 | 18.33° C | 91% | 990.6 hPa | 0 mm | - | - | - |
| 1777240363 | 18.33° C | 91% | 990.6 hPa | 0 mm | - | - | - |
| 1777240110 | 18.33° C | 91% | 990.6 hPa | 0 mm | - | - | - |
| 1777239811 | 18.33° C | 91% | 990.6 hPa | 0 mm | - | - | - |
| 1777239510 | 18.33° C | 91% | 990.6 hPa | 0 mm | - | - | - |
| 1777239283 | 31.11° C | 62% | 978.7 hPa | 0 mm | - | - | - |
| 1777239210 | 18.33° C | 91% | 990.6 hPa | 0 mm | - | - | - |
| 1777238911 | 18.33° C | 91% | 990.6 hPa | 0 mm | - | - | - |
| 1777238610 | 18.33° C | 91% | 990.6 hPa | 0 mm | - | - | - |
| 1777238203 | 18.33° C | 91% | 990.6 hPa | 0 mm | - | - | - |
| 1777238010 | 30.56° C | 63% | 979.4 hPa | 0 mm | - | - | - |
* Rain latest hour (hover to see other rain measurements)
** Current wind speed in m/s (hover to see current wind gust speed)